sensor_id;sensor_type;location;lat;lon;timestamp;temperature;humidity
15107;DHT22;7654;45.308;-75.096;2023-12-20T00:00:43;-6.50;99.90
15107;DHT22;7654;45.308;-75.096;2023-12-20T00:03:14;-6.40;99.90
15107;DHT22;7654;45.308;-75.096;2023-12-20T00:05:45;-6.50;99.90
15107;DHT22;7654;45.308;-75.096;2023-12-20T00:08:17;-6.50;99.90
15107;DHT22;7654;45.308;-75.096;2023-12-20T00:10:47;-6.50;99.90
15107;DHT22;7654;45.308;-75.096;2023-12-20T00:13:19;-6.50;99.90
15107;DHT22;7654;45.308;-75.096;2023-12-20T00:15:50;-6.50;99.90
15107;DHT22;7654;45.308;-75.096;2023-12-20T00:18:21;-6.60;99.90
15107;DHT22;7654;45.308;-75.096;2023-12-20T00:20:52;-6.60;99.90
15107;DHT22;7654;45.308;-75.096;2023-12-20T00:23:24;-6.60;99.90
15107;DHT22;7654;45.308;-75.096;2023-12-20T00:25:55;-6.70;99.90
15107;DHT22;7654;45.308;-75.096;2023-12-20T00:28:26;-6.80;99.90
15107;DHT22;7654;45.308;-75.096;2023-12-20T00:30:56;-6.80;99.90
15107;DHT22;7654;45.308;-75.096;2023-12-20T00:33:26;-6.80;99.90
15107;DHT22;7654;45.308;-75.096;2023-12-20T00:35:57;-6.80;99.90
15107;DHT22;7654;45.308;-75.096;2023-12-20T00:38:29;-6.80;99.90
15107;DHT22;7654;45.308;-75.096;2023-12-20T00:41:00;-6.90;99.90
15107;DHT22;7654;45.308;-75.096;2023-12-20T00:43:31;-6.80;99.90
15107;DHT22;7654;45.308;-75.096;2023-12-20T00:46:01;-6.90;99.90
15107;DHT22;7654;45.308;-75.096;2023-12-20T00:48:31;-6.90;99.90
15107;DHT22;7654;45.308;-75.096;2023-12-20T00:51:01;-6.90;99.90
15107;DHT22;7654;45.308;-75.096;2023-12-20T00:53:33;-6.90;99.90
15107;DHT22;7654;45.308;-75.096;2023-12-20T00:56:04;-6.90;99.90
15107;DHT22;7654;45.308;-75.096;2023-12-20T00:58:35;-7.00;99.90
15107;DHT22;7654;45.308;-75.096;2023-12-20T01:01:05;-7.10;99.90
15107;DHT22;7654;45.308;-75.096;2023-12-20T01:03:35;-7.20;99.90
15107;DHT22;7654;45.308;-75.096;2023-12-20T01:06:06;-7.10;99.90
15107;DHT22;7654;45.308;-75.096;2023-12-20T01:08:38;-7.20;99.90
15107;DHT22;7654;45.308;-75.096;2023-12-20T01:11:10;-7.10;99.90
15107;DHT22;7654;45.308;-75.096;2023-12-20T01:13:40;-7.20;99.90
15107;DHT22;7654;45.308;-75.096;2023-12-20T01:16:12;-7.20;99.90
15107;DHT22;7654;45.308;-75.096;2023-12-20T01:18:42;-7.30;99.90
15107;DHT22;7654;45.308;-75.096;2023-12-20T01:21:13;-7.40;99.90
15107;DHT22;7654;45.308;-75.096;2023-12-20T01:23:45;-7.50;99.90
15107;DHT22;7654;45.308;-75.096;2023-12-20T01:26:16;-7.60;99.90
15107;DHT22;7654;45.308;-75.096;2023-12-20T01:28:46;-7.70;99.90
15107;DHT22;7654;45.308;-75.096;2023-12-20T01:31:16;-7.60;99.90
15107;DHT22;7654;45.308;-75.096;2023-12-20T01:33:47;-7.60;99.90
15107;DHT22;7654;45.308;-75.096;2023-12-20T01:36:17;-7.70;99.90
15107;DHT22;7654;45.308;-75.096;2023-12-20T01:38:49;-7.90;99.90
15107;DHT22;7654;45.308;-75.096;2023-12-20T01:41:19;-8.00;99.90
15107;DHT22;7654;45.308;-75.096;2023-12-20T01:43:50;-8.20;99.90
15107;DHT22;7654;45.308;-75.096;2023-12-20T01:46:21;-8.30;99.90
15107;DHT22;7654;45.308;-75.096;2023-12-20T01:48:52;-8.30;99.90
15107;DHT22;7654;45.308;-75.096;2023-12-20T01:51:23;-8.20;99.90
15107;DHT22;7654;45.308;-75.096;2023-12-20T01:53:58;-8.20;99.90
15107;DHT22;7654;45.308;-75.096;2023-12-20T01:56:29;-8.30;99.90
15107;DHT22;7654;45.308;-75.096;2023-12-20T01:59:01;-8.40;99.90
15107;DHT22;7654;45.308;-75.096;2023-12-20T02:01:32;-8.50;99.90
15107;DHT22;7654;45.308;-75.096;2023-12-20T02:04:03;-8.50;99.90
15107;DHT22;7654;45.308;-75.096;2023-12-20T02:06:34;-8.40;99.90
15107;DHT22;7654;45.308;-75.096;2023-12-20T02:09:07;-8.50;99.90
15107;DHT22;7654;45.308;-75.096;2023-12-20T02:11:38;-8.60;99.90
15107;DHT22;7654;45.308;-75.096;2023-12-20T02:14:08;-8.70;99.90
15107;DHT22;7654;45.308;-75.096;2023-12-20T02:16:39;-8.80;99.90
15107;DHT22;7654;45.308;-75.096;2023-12-20T02:19:14;-8.80;99.90
15107;DHT22;7654;45.308;-75.096;2023-12-20T02:21:46;-8.60;99.90
15107;DHT22;7654;45.308;-75.096;2023-12-20T02:24:16;-8.60;99.90
15107;DHT22;7654;45.308;-75.096;2023-12-20T02:26:47;-8.60;99.90
15107;DHT22;7654;45.308;-75.096;2023-12-20T02:29:18;-8.60;99.90
15107;DHT22;7654;45.308;-75.096;2023-12-20T02:31:48;-8.60;99.90
15107;DHT22;7654;45.308;-75.096;2023-12-20T02:34:18;-8.60;99.90
15107;DHT22;7654;45.308;-75.096;2023-12-20T02:36:50;-8.70;99.90
15107;DHT22;7654;45.308;-75.096;2023-12-20T02:39:21;-8.70;99.90
15107;DHT22;7654;45.308;-75.096;2023-12-20T02:41:52;-8.80;99.90
15107;DHT22;7654;45.308;-75.096;2023-12-20T02:44:22;-8.90;99.90
15107;DHT22;7654;45.308;-75.096;2023-12-20T02:46:52;-9.10;99.90
15107;DHT22;7654;45.308;-75.096;2023-12-20T02:49:23;-9.10;99.90
15107;DHT22;7654;45.308;-75.096;2023-12-20T02:51:55;-9.20;99.90
15107;DHT22;7654;45.308;-75.096;2023-12-20T02:54:25;-9.30;99.90
15107;DHT22;7654;45.308;-75.096;2023-12-20T02:56:58;-9.30;99.90
15107;DHT22;7654;45.308;-75.096;2023-12-20T02:59:30;-9.30;99.90
15107;DHT22;7654;45.308;-75.096;2023-12-20T03:02:00;-9.30;99.90
15107;DHT22;7654;45.308;-75.096;2023-12-20T03:04:31;-9.30;99.90
15107;DHT22;7654;45.308;-75.096;2023-12-20T03:07:04;-9.30;99.90
15107;DHT22;7654;45.308;-75.096;2023-12-20T03:09:34;-9.20;99.90
15107;DHT22;7654;45.308;-75.096;2023-12-20T03:12:24;-9.10;99.90
15107;DHT22;7654;45.308;-75.096;2023-12-20T03:14:55;-9.20;99.90
15107;DHT22;7654;45.308;-75.096;2023-12-20T03:17:25;-9.10;99.90
15107;DHT22;7654;45.308;-75.096;2023-12-20T03:19:55;-9.20;99.90
15107;DHT22;7654;45.308;-75.096;2023-12-20T03:22:27;-9.20;99.90
15107;DHT22;7654;45.308;-75.096;2023-12-20T03:24:57;-9.10;99.90
15107;DHT22;7654;45.308;-75.096;2023-12-20T03:27:27;-9.20;99.90
15107;DHT22;7654;45.308;-75.096;2023-12-20T03:29:57;-9.20;99.90
15107;DHT22;7654;45.308;-75.096;2023-12-20T03:32:27;-9.20;99.90
15107;DHT22;7654;45.308;-75.096;2023-12-20T03:34:58;-9.30;99.90
15107;DHT22;7654;45.308;-75.096;2023-12-20T03:37:30;-9.40;99.90
15107;DHT22;7654;45.308;-75.096;2023-12-20T03:40:01;-9.40;99.90
15107;DHT22;7654;45.308;-75.096;2023-12-20T03:42:31;-9.50;99.90
15107;DHT22;7654;45.308;-75.096;2023-12-20T03:45:01;-9.60;99.90
15107;DHT22;7654;45.308;-75.096;2023-12-20T03:47:31;-9.70;99.90
15107;DHT22;7654;45.308;-75.096;2023-12-20T03:50:02;-9.80;99.90
15107;DHT22;7654;45.308;-75.096;2023-12-20T03:52:33;-9.90;99.90
15107;DHT22;7654;45.308;-75.096;2023-12-20T03:55:04;-9.80;99.90
15107;DHT22;7654;45.308;-75.096;2023-12-20T03:57:34;-9.80;99.90
15107;DHT22;7654;45.308;-75.096;2023-12-20T04:00:06;-9.70;99.90
15107;DHT22;7654;45.308;-75.096;2023-12-20T04:02:38;-9.60;99.90
15107;DHT22;7654;45.308;-75.096;2023-12-20T04:05:09;-9.70;99.90
15107;DHT22;7654;45.308;-75.096;2023-12-20T04:07:41;-9.70;99.90
15107;DHT22;7654;45.308;-75.096;2023-12-20T04:10:12;-9.80;99.90
15107;DHT22;7654;45.308;-75.096;2023-12-20T04:12:43;-9.80;99.90
15107;DHT22;7654;45.308;-75.096;2023-12-20T04:15:13;-9.70;99.90
15107;DHT22;7654;45.308;-75.096;2023-12-20T04:17:43;-9.60;99.90
15107;DHT22;7654;45.308;-75.096;2023-12-20T04:20:14;-9.40;99.90
15107;DHT22;7654;45.308;-75.096;2023-12-20T04:22:46;-9.30;99.90
15107;DHT22;7654;45.308;-75.096;2023-12-20T04:25:16;-9.30;99.90
15107;DHT22;7654;45.308;-75.096;2023-12-20T04:27:46;-9.30;99.90
15107;DHT22;7654;45.308;-75.096;2023-12-20T04:30:17;-9.20;99.90
15107;DHT22;7654;45.308;-75.096;2023-12-20T04:32:47;-9.20;99.90
15107;DHT22;7654;45.308;-75.096;2023-12-20T04:35:17;-9.20;99.90
15107;DHT22;7654;45.308;-75.096;2023-12-20T04:37:49;-9.10;99.90
15107;DHT22;7654;45.308;-75.096;2023-12-20T04:40:20;-9.00;99.90
15107;DHT22;7654;45.308;-75.096;2023-12-20T04:42:50;-9.10;99.90
15107;DHT22;7654;45.308;-75.096;2023-12-20T04:45:20;-9.30;99.90
15107;DHT22;7654;45.308;-75.096;2023-12-20T04:47:52;-9.40;99.90
15107;DHT22;7654;45.308;-75.096;2023-12-20T04:50:22;-9.40;99.90
15107;DHT22;7654;45.308;-75.096;2023-12-20T04:52:54;-9.30;99.90
15107;DHT22;7654;45.308;-75.096;2023-12-20T04:55:24;-9.40;99.90
15107;DHT22;7654;45.308;-75.096;2023-12-20T04:57:55;-9.30;99.90
15107;DHT22;7654;45.308;-75.096;2023-12-20T05:00:25;-9.30;99.90
15107;DHT22;7654;45.308;-75.096;2023-12-20T05:02:56;-9.10;99.90
15107;DHT22;7654;45.308;-75.096;2023-12-20T05:05:26;-8.90;99.90
15107;DHT22;7654;45.308;-75.096;2023-12-20T05:07:58;-8.70;99.90
15107;DHT22;7654;45.308;-75.096;2023-12-20T05:10:28;-8.60;99.90
15107;DHT22;7654;45.308;-75.096;2023-12-20T05:12:58;-8.50;99.90
15107;DHT22;7654;45.308;-75.096;2023-12-20T05:15:28;-8.50;99.90
15107;DHT22;7654;45.308;-75.096;2023-12-20T05:17:59;-8.40;99.90
15107;DHT22;7654;45.308;-75.096;2023-12-20T05:20:29;-8.30;99.90
15107;DHT22;7654;45.308;-75.096;2023-12-20T05:23:01;-8.20;99.90
15107;DHT22;7654;45.308;-75.096;2023-12-20T05:25:31;-8.20;99.90
15107;DHT22;7654;45.308;-75.096;2023-12-20T05:28:01;-8.30;99.90
15107;DHT22;7654;45.308;-75.096;2023-12-20T05:30:31;-8.40;99.90
15107;DHT22;7654;45.308;-75.096;2023-12-20T05:33:02;-8.50;99.90
15107;DHT22;7654;45.308;-75.096;2023-12-20T05:35:32;-8.60;99.90
15107;DHT22;7654;45.308;-75.096;2023-12-20T05:38:04;-8.50;99.90
15107;DHT22;7654;45.308;-75.096;2023-12-20T05:40:34;-8.30;99.90
15107;DHT22;7654;45.308;-75.096;2023-12-20T05:43:05;-8.10;99.90
15107;DHT22;7654;45.308;-75.096;2023-12-20T05:45:35;-7.90;99.90
15107;DHT22;7654;45.308;-75.096;2023-12-20T05:48:06;-7.70;99.90
15107;DHT22;7654;45.308;-75.096;2023-12-20T05:50:37;-7.50;99.90
15107;DHT22;7654;45.308;-75.096;2023-12-20T05:53:09;-7.30;99.90
15107;DHT22;7654;45.308;-75.096;2023-12-20T05:55:39;-7.30;99.90
15107;DHT22;7654;45.308;-75.096;2023-12-20T05:58:09;-7.30;99.90
15107;DHT22;7654;45.308;-75.096;2023-12-20T06:00:39;-7.30;99.90
15107;DHT22;7654;45.308;-75.096;2023-12-20T06:03:09;-7.30;99.90
15107;DHT22;7654;45.308;-75.096;2023-12-20T06:05:40;-7.20;99.90
15107;DHT22;7654;45.308;-75.096;2023-12-20T06:08:12;-7.20;99.90
15107;DHT22;7654;45.308;-75.096;2023-12-20T06:10:42;-7.20;99.90
15107;DHT22;7654;45.308;-75.096;2023-12-20T06:13:12;-7.30;99.90
15107;DHT22;7654;45.308;-75.096;2023-12-20T06:15:43;-7.30;99.90
15107;DHT22;7654;45.308;-75.096;2023-12-20T06:18:13;-7.50;99.90
15107;DHT22;7654;45.308;-75.096;2023-12-20T06:20:43;-7.70;99.90
15107;DHT22;7654;45.308;-75.096;2023-12-20T06:23:15;-7.80;99.90
15107;DHT22;7654;45.308;-75.096;2023-12-20T06:25:45;-7.80;99.90
15107;DHT22;7654;45.308;-75.096;2023-12-20T06:28:15;-7.70;99.90
15107;DHT22;7654;45.308;-75.096;2023-12-20T06:30:45;-7.70;99.90
15107;DHT22;7654;45.308;-75.096;2023-12-20T06:33:17;-7.50;99.90
15107;DHT22;7654;45.308;-75.096;2023-12-20T06:35:49;-7.30;99.90
15107;DHT22;7654;45.308;-75.096;2023-12-20T06:38:22;-7.30;99.90
15107;DHT22;7654;45.308;-75.096;2023-12-20T06:40:52;-7.10;99.90
15107;DHT22;7654;45.308;-75.096;2023-12-20T06:43:22;-7.00;99.90
15107;DHT22;7654;45.308;-75.096;2023-12-20T06:46:12;-6.90;99.90
15107;DHT22;7654;45.308;-75.096;2023-12-20T06:48:43;-6.80;99.90
15107;DHT22;7654;45.308;-75.096;2023-12-20T06:51:15;-6.60;99.90
15107;DHT22;7654;45.308;-75.096;2023-12-20T06:53:47;-6.60;99.90
15107;DHT22;7654;45.308;-75.096;2023-12-20T06:56:17;-6.70;99.90
15107;DHT22;7654;45.308;-75.096;2023-12-20T06:58:47;-6.70;99.90
15107;DHT22;7654;45.308;-75.096;2023-12-20T07:01:17;-6.70;99.90
15107;DHT22;7654;45.308;-75.096;2023-12-20T07:03:48;-6.80;99.90
15107;DHT22;7654;45.308;-75.096;2023-12-20T07:06:18;-6.80;99.90
15107;DHT22;7654;45.308;-75.096;2023-12-20T07:08:53;-6.90;99.90
15107;DHT22;7654;45.308;-75.096;2023-12-20T07:11:23;-7.00;99.90
15107;DHT22;7654;45.308;-75.096;2023-12-20T07:13:54;-7.10;99.90
15107;DHT22;7654;45.308;-75.096;2023-12-20T07:16:24;-7.30;99.90
15107;DHT22;7654;45.308;-75.096;2023-12-20T07:18:54;-7.50;99.90
15107;DHT22;7654;45.308;-75.096;2023-12-20T07:21:25;-7.70;99.90
15107;DHT22;7654;45.308;-75.096;2023-12-20T07:23:57;-7.90;99.90
15107;DHT22;7654;45.308;-75.096;2023-12-20T07:26:27;-8.10;99.90
15107;DHT22;7654;45.308;-75.096;2023-12-20T07:28:57;-8.10;99.90
15107;DHT22;7654;45.308;-75.096;2023-12-20T07:31:28;-8.20;99.90
15107;DHT22;7654;45.308;-75.096;2023-12-20T07:33:59;-8.30;99.90
15107;DHT22;7654;45.308;-75.096;2023-12-20T07:36:29;-8.40;99.90
15107;DHT22;7654;45.308;-75.096;2023-12-20T07:39:06;-8.50;99.90
15107;DHT22;7654;45.308;-75.096;2023-12-20T07:41:37;-8.70;99.90
15107;DHT22;7654;45.308;-75.096;2023-12-20T07:44:07;-8.70;99.90
15107;DHT22;7654;45.308;-75.096;2023-12-20T07:46:37;-8.70;99.90
15107;DHT22;7654;45.308;-75.096;2023-12-20T07:49:08;-8.70;99.90
15107;DHT22;7654;45.308;-75.096;2023-12-20T07:51:38;-8.50;99.90
15107;DHT22;7654;45.308;-75.096;2023-12-20T07:54:10;-8.20;99.90
15107;DHT22;7654;45.308;-75.096;2023-12-20T07:56:40;-7.80;99.90
15107;DHT22;7654;45.308;-75.096;2023-12-20T07:59:10;-7.70;99.90
15107;DHT22;7654;45.308;-75.096;2023-12-20T08:01:56;-7.70;99.90
15107;DHT22;7654;45.308;-75.096;2023-12-20T08:04:27;-7.80;99.90
15107;DHT22;7654;45.308;-75.096;2023-12-20T08:06:57;-7.80;99.90
15107;DHT22;7654;45.308;-75.096;2023-12-20T08:09:30;-7.80;99.90
15107;DHT22;7654;45.308;-75.096;2023-12-20T08:12:00;-7.80;99.90
15107;DHT22;7654;45.308;-75.096;2023-12-20T08:14:31;-7.90;99.90
15107;DHT22;7654;45.308;-75.096;2023-12-20T08:17:01;-8.00;99.90
15107;DHT22;7654;45.308;-75.096;2023-12-20T08:19:31;-8.20;99.90
15107;DHT22;7654;45.308;-75.096;2023-12-20T08:22:01;-8.30;99.90
15107;DHT22;7654;45.308;-75.096;2023-12-20T08:24:33;-8.50;99.90
15107;DHT22;7654;45.308;-75.096;2023-12-20T08:27:04;-8.60;99.90
15107;DHT22;7654;45.308;-75.096;2023-12-20T08:29:34;-8.70;99.90
15107;DHT22;7654;45.308;-75.096;2023-12-20T08:32:05;-8.70;99.90
15107;DHT22;7654;45.308;-75.096;2023-12-20T08:34:35;-8.90;99.90
15107;DHT22;7654;45.308;-75.096;2023-12-20T08:37:06;-8.90;99.90
15107;DHT22;7654;45.308;-75.096;2023-12-20T08:39:38;-8.80;99.90
15107;DHT22;7654;45.308;-75.096;2023-12-20T08:42:12;-8.90;99.90
15107;DHT22;7654;45.308;-75.096;2023-12-20T08:44:42;-8.90;99.90
15107;DHT22;7654;45.308;-75.096;2023-12-20T08:47:12;-8.90;99.90
15107;DHT22;7654;45.308;-75.096;2023-12-20T08:49:44;-8.90;99.90
15107;DHT22;7654;45.308;-75.096;2023-12-20T08:52:14;-8.90;99.90
15107;DHT22;7654;45.308;-75.096;2023-12-20T08:54:46;-9.00;99.90
15107;DHT22;7654;45.308;-75.096;2023-12-20T08:57:17;-8.80;99.90
15107;DHT22;7654;45.308;-75.096;2023-12-20T08:59:47;-8.80;99.90
15107;DHT22;7654;45.308;-75.096;2023-12-20T09:02:18;-8.80;99.90
15107;DHT22;7654;45.308;-75.096;2023-12-20T09:04:48;-8.90;99.90
15107;DHT22;7654;45.308;-75.096;2023-12-20T09:07:22;-9.00;99.90
15107;DHT22;7654;45.308;-75.096;2023-12-20T09:09:54;-9.10;99.90
15107;DHT22;7654;45.308;-75.096;2023-12-20T09:12:25;-9.20;99.90
15107;DHT22;7654;45.308;-75.096;2023-12-20T09:14:55;-9.20;99.90
15107;DHT22;7654;45.308;-75.096;2023-12-20T09:17:25;-9.00;99.90
15107;DHT22;7654;45.308;-75.096;2023-12-20T09:19:56;-9.10;99.90
15107;DHT22;7654;45.308;-75.096;2023-12-20T09:22:28;-9.10;99.90
15107;DHT22;7654;45.308;-75.096;2023-12-20T09:25:00;-9.10;99.90
15107;DHT22;7654;45.308;-75.096;2023-12-20T09:27:31;-9.00;99.90
15107;DHT22;7654;45.308;-75.096;2023-12-20T09:30:02;-8.80;99.90
15107;DHT22;7654;45.308;-75.096;2023-12-20T09:32:33;-8.80;99.90
15107;DHT22;7654;45.308;-75.096;2023-12-20T09:35:04;-8.60;99.90
15107;DHT22;7654;45.308;-75.096;2023-12-20T09:37:35;-8.60;99.90
15107;DHT22;7654;45.308;-75.096;2023-12-20T09:40:10;-8.60;99.90
15107;DHT22;7654;45.308;-75.096;2023-12-20T09:42:48;-8.50;99.90
15107;DHT22;7654;45.308;-75.096;2023-12-20T09:45:20;-8.60;99.90
15107;DHT22;7654;45.308;-75.096;2023-12-20T09:47:53;-8.60;99.90
15107;DHT22;7654;45.308;-75.096;2023-12-20T09:50:24;-8.50;99.90
15107;DHT22;7654;45.308;-75.096;2023-12-20T09:52:54;-8.40;99.90
15107;DHT22;7654;45.308;-75.096;2023-12-20T09:55:29;-8.30;99.90
15107;DHT22;7654;45.308;-75.096;2023-12-20T09:58:01;-8.30;99.90
15107;DHT22;7654;45.308;-75.096;2023-12-20T10:00:31;-8.30;99.90
15107;DHT22;7654;45.308;-75.096;2023-12-20T10:03:01;-8.10;99.90
15107;DHT22;7654;45.308;-75.096;2023-12-20T10:05:32;-8.10;99.90
15107;DHT22;7654;45.308;-75.096;2023-12-20T10:08:03;-8.10;99.90
15107;DHT22;7654;45.308;-75.096;2023-12-20T10:10:35;-8.20;99.90
15107;DHT22;7654;45.308;-75.096;2023-12-20T10:13:15;-8.10;99.90
15107;DHT22;7654;45.308;-75.096;2023-12-20T10:15:45;-7.90;99.90
15107;DHT22;7654;45.308;-75.096;2023-12-20T10:18:17;-7.70;99.90
15107;DHT22;7654;45.308;-75.096;2023-12-20T10:20:47;-7.70;99.90
15107;DHT22;7654;45.308;-75.096;2023-12-20T10:23:17;-7.80;99.90
15107;DHT22;7654;45.308;-75.096;2023-12-20T10:25:58;-8.00;99.90
15107;DHT22;7654;45.308;-75.096;2023-12-20T10:28:33;-8.20;99.90
15107;DHT22;7654;45.308;-75.096;2023-12-20T10:31:04;-8.30;99.90
15107;DHT22;7654;45.308;-75.096;2023-12-20T10:33:35;-8.50;99.90
15107;DHT22;7654;45.308;-75.096;2023-12-20T10:36:06;-8.60;99.90
15107;DHT22;7654;45.308;-75.096;2023-12-20T10:38:39;-8.70;99.90
15107;DHT22;7654;45.308;-75.096;2023-12-20T10:41:14;-8.80;99.90
15107;DHT22;7654;45.308;-75.096;2023-12-20T10:43:47;-8.80;99.90
15107;DHT22;7654;45.308;-75.096;2023-12-20T10:46:17;-8.90;99.90
15107;DHT22;7654;45.308;-75.096;2023-12-20T10:48:49;-9.00;99.90
15107;DHT22;7654;45.308;-75.096;2023-12-20T10:51:21;-9.20;99.90
15107;DHT22;7654;45.308;-75.096;2023-12-20T10:53:54;-9.20;99.90
15107;DHT22;7654;45.308;-75.096;2023-12-20T10:56:32;-9.20;99.90
15107;DHT22;7654;45.308;-75.096;2023-12-20T10:59:04;-9.20;99.90
15107;DHT22;7654;45.308;-75.096;2023-12-20T11:01:38;-9.20;99.90
15107;DHT22;7654;45.308;-75.096;2023-12-20T11:04:18;-9.10;99.90
15107;DHT22;7654;45.308;-75.096;2023-12-20T11:06:54;-8.90;99.90
15107;DHT22;7654;45.308;-75.096;2023-12-20T11:09:31;-8.60;99.90
15107;DHT22;7654;45.308;-75.096;2023-12-20T11:12:11;-8.40;99.90
15107;DHT22;7654;45.308;-75.096;2023-12-20T11:14:46;-8.10;99.90
15107;DHT22;7654;45.308;-75.096;2023-12-20T11:17:17;-7.90;99.90
15107;DHT22;7654;45.308;-75.096;2023-12-20T11:20:06;-7.60;99.90
15107;DHT22;7654;45.308;-75.096;2023-12-20T11:22:39;-7.30;99.90
15107;DHT22;7654;45.308;-75.096;2023-12-20T11:25:11;-6.90;99.90
15107;DHT22;7654;45.308;-75.096;2023-12-20T11:27:43;-6.70;99.90
15107;DHT22;7654;45.308;-75.096;2023-12-20T11:30:17;-6.60;99.90
15107;DHT22;7654;45.308;-75.096;2023-12-20T11:32:47;-6.40;99.90
15107;DHT22;7654;45.308;-75.096;2023-12-20T11:35:19;-6.30;99.90
15107;DHT22;7654;45.308;-75.096;2023-12-20T11:37:51;-6.20;99.90
15107;DHT22;7654;45.308;-75.096;2023-12-20T11:40:23;-6.10;99.90
15107;DHT22;7654;45.308;-75.096;2023-12-20T11:42:55;-5.90;99.90
15107;DHT22;7654;45.308;-75.096;2023-12-20T11:45:25;-5.80;99.90
15107;DHT22;7654;45.308;-75.096;2023-12-20T11:47:58;-5.60;99.90
15107;DHT22;7654;45.308;-75.096;2023-12-20T11:50:28;-5.60;99.90
15107;DHT22;7654;45.308;-75.096;2023-12-20T11:52:59;-5.50;99.90
15107;DHT22;7654;45.308;-75.096;2023-12-20T11:55:30;-5.50;99.90
15107;DHT22;7654;45.308;-75.096;2023-12-20T11:58:01;-5.40;99.90
15107;DHT22;7654;45.308;-75.096;2023-12-20T12:00:32;-5.40;99.90
15107;DHT22;7654;45.308;-75.096;2023-12-20T12:03:02;-5.30;99.90
15107;DHT22;7654;45.308;-75.096;2023-12-20T12:05:32;-5.30;99.90
15107;DHT22;7654;45.308;-75.096;2023-12-20T12:08:04;-5.20;99.90
15107;DHT22;7654;45.308;-75.096;2023-12-20T12:10:35;-5.20;99.90
15107;DHT22;7654;45.308;-75.096;2023-12-20T12:13:08;-5.20;99.90
15107;DHT22;7654;45.308;-75.096;2023-12-20T12:15:38;-5.10;99.90
15107;DHT22;7654;45.308;-75.096;2023-12-20T12:18:10;-5.10;99.90
15107;DHT22;7654;45.308;-75.096;2023-12-20T12:20:40;-5.00;99.90
15107;DHT22;7654;45.308;-75.096;2023-12-20T12:23:11;-4.90;99.90
15107;DHT22;7654;45.308;-75.096;2023-12-20T12:25:41;-4.90;99.90
15107;DHT22;7654;45.308;-75.096;2023-12-20T12:28:13;-4.90;99.90
15107;DHT22;7654;45.308;-75.096;2023-12-20T12:30:47;-4.90;99.90
15107;DHT22;7654;45.308;-75.096;2023-12-20T12:33:25;-4.80;99.90
15107;DHT22;7654;45.308;-75.096;2023-12-20T12:35:56;-4.80;99.90
15107;DHT22;7654;45.308;-75.096;2023-12-20T12:38:28;-4.70;99.90
15107;DHT22;7654;45.308;-75.096;2023-12-20T12:40:58;-4.70;99.90
15107;DHT22;7654;45.308;-75.096;2023-12-20T12:43:31;-4.70;99.90
15107;DHT22;7654;45.308;-75.096;2023-12-20T12:46:03;-4.60;99.90
15107;DHT22;7654;45.308;-75.096;2023-12-20T12:48:34;-4.60;99.90
15107;DHT22;7654;45.308;-75.096;2023-12-20T12:51:04;-4.60;99.90
15107;DHT22;7654;45.308;-75.096;2023-12-20T12:53:36;-4.50;99.90
15107;DHT22;7654;45.308;-75.096;2023-12-20T12:56:06;-4.40;99.90
15107;DHT22;7654;45.308;-75.096;2023-12-20T12:58:39;-4.40;99.90
15107;DHT22;7654;45.308;-75.096;2023-12-20T13:01:09;-4.40;99.90
15107;DHT22;7654;45.308;-75.096;2023-12-20T13:03:40;-4.30;99.90
15107;DHT22;7654;45.308;-75.096;2023-12-20T13:06:10;-4.30;99.90
15107;DHT22;7654;45.308;-75.096;2023-12-20T13:08:40;-4.30;99.90
15107;DHT22;7654;45.308;-75.096;2023-12-20T13:11:10;-4.20;99.90
15107;DHT22;7654;45.308;-75.096;2023-12-20T13:13:43;-4.20;99.90
15107;DHT22;7654;45.308;-75.096;2023-12-20T13:16:13;-4.10;99.90
15107;DHT22;7654;45.308;-75.096;2023-12-20T13:18:43;-4.10;99.90
15107;DHT22;7654;45.308;-75.096;2023-12-20T13:21:14;-4.10;99.90
15107;DHT22;7654;45.308;-75.096;2023-12-20T13:23:45;-4.00;99.90
15107;DHT22;7654;45.308;-75.096;2023-12-20T13:26:15;-4.00;99.90
15107;DHT22;7654;45.308;-75.096;2023-12-20T13:28:47;-3.90;99.90
15107;DHT22;7654;45.308;-75.096;2023-12-20T13:31:19;-3.80;99.90
15107;DHT22;7654;45.308;-75.096;2023-12-20T13:33:49;-3.80;99.90
15107;DHT22;7654;45.308;-75.096;2023-12-20T13:36:21;-3.70;99.90
15107;DHT22;7654;45.308;-75.096;2023-12-20T13:38:51;-3.60;99.90
15107;DHT22;7654;45.308;-75.096;2023-12-20T13:41:21;-3.60;99.90
15107;DHT22;7654;45.308;-75.096;2023-12-20T13:43:53;-3.50;99.90
15107;DHT22;7654;45.308;-75.096;2023-12-20T13:46:23;-3.40;99.90
15107;DHT22;7654;45.308;-75.096;2023-12-20T13:48:53;-3.40;99.90
15107;DHT22;7654;45.308;-75.096;2023-12-20T13:51:24;-3.30;99.90
15107;DHT22;7654;45.308;-75.096;2023-12-20T13:53:54;-3.20;99.90
15107;DHT22;7654;45.308;-75.096;2023-12-20T13:56:24;-3.10;99.90
15107;DHT22;7654;45.308;-75.096;2023-12-20T13:58:56;-3.10;99.90
15107;DHT22;7654;45.308;-75.096;2023-12-20T14:01:28;-3.00;99.90
15107;DHT22;7654;45.308;-75.096;2023-12-20T14:03:58;-2.90;99.90
15107;DHT22;7654;45.308;-75.096;2023-12-20T14:06:29;-2.90;99.90
15107;DHT22;7654;45.308;-75.096;2023-12-20T14:08:59;-2.80;99.90
15107;DHT22;7654;45.308;-75.096;2023-12-20T14:11:31;-2.80;99.90
15107;DHT22;7654;45.308;-75.096;2023-12-20T14:14:02;-2.70;99.90
15107;DHT22;7654;45.308;-75.096;2023-12-20T14:16:33;-2.60;99.90
15107;DHT22;7654;45.308;-75.096;2023-12-20T14:19:03;-2.60;99.90
15107;DHT22;7654;45.308;-75.096;2023-12-20T14:21:35;-2.50;99.90
15107;DHT22;7654;45.308;-75.096;2023-12-20T14:24:06;-2.60;99.90
15107;DHT22;7654;45.308;-75.096;2023-12-20T14:26:36;-2.50;99.90
15107;DHT22;7654;45.308;-75.096;2023-12-20T14:29:08;-2.40;99.90
15107;DHT22;7654;45.308;-75.096;2023-12-20T14:31:38;-2.40;99.90
15107;DHT22;7654;45.308;-75.096;2023-12-20T14:34:09;-2.30;99.90
15107;DHT22;7654;45.308;-75.096;2023-12-20T14:36:39;-2.30;99.90
15107;DHT22;7654;45.308;-75.096;2023-12-20T14:39:10;-2.20;99.90
15107;DHT22;7654;45.308;-75.096;2023-12-20T14:41:42;-2.20;99.90
15107;DHT22;7654;45.308;-75.096;2023-12-20T14:44:29;-2.10;99.90
15107;DHT22;7654;45.308;-75.096;2023-12-20T14:46:59;-2.10;99.90
15107;DHT22;7654;45.308;-75.096;2023-12-20T14:49:30;-2.00;99.90
15107;DHT22;7654;45.308;-75.096;2023-12-20T14:52:00;-2.00;99.90
15107;DHT22;7654;45.308;-75.096;2023-12-20T14:54:31;-1.90;99.90
15107;DHT22;7654;45.308;-75.096;2023-12-20T14:57:01;-1.80;99.90
15107;DHT22;7654;45.308;-75.096;2023-12-20T14:59:34;-1.80;99.90
15107;DHT22;7654;45.308;-75.096;2023-12-20T15:02:04;-1.70;99.90
15107;DHT22;7654;45.308;-75.096;2023-12-20T15:04:35;-1.60;99.90
15107;DHT22;7654;45.308;-75.096;2023-12-20T15:07:05;-1.50;99.90
15107;DHT22;7654;45.308;-75.096;2023-12-20T15:09:36;-1.50;99.90
15107;DHT22;7654;45.308;-75.096;2023-12-20T15:12:07;-1.40;99.90
15107;DHT22;7654;45.308;-75.096;2023-12-20T15:14:39;-1.40;99.90
15107;DHT22;7654;45.308;-75.096;2023-12-20T15:17:09;-1.30;99.90
15107;DHT22;7654;45.308;-75.096;2023-12-20T15:19:40;-1.30;99.90
15107;DHT22;7654;45.308;-75.096;2023-12-20T15:22:11;-1.30;99.90
15107;DHT22;7654;45.308;-75.096;2023-12-20T15:24:41;-1.10;99.90
15107;DHT22;7654;45.308;-75.096;2023-12-20T15:27:13;-1.00;99.90
15107;DHT22;7654;45.308;-75.096;2023-12-20T15:29:45;-0.90;99.90
15107;DHT22;7654;45.308;-75.096;2023-12-20T15:32:18;-0.80;99.90
15107;DHT22;7654;45.308;-75.096;2023-12-20T15:34:49;-0.70;99.90
15107;DHT22;7654;45.308;-75.096;2023-12-20T15:37:20;-0.70;99.90
15107;DHT22;7654;45.308;-75.096;2023-12-20T15:39:50;-0.50;99.90